Time,TemperatureF,DewpointF,PressureIn,WindDirection,WindDirectionDegrees,WindSpeedMPH,WindSpeedGustMPH,Humidity,HourlyPrecipIn,Conditions,Clouds,dailyrainin,SoftwareType,DateUTC
2013-02-04 00:00:00,7.3,4.8,29.90,NW,306,6.0,9.0,89,0.00,,---,0.00,VWS V14.01,2013-02-04 05:00:00,
2013-02-04 00:01:00,7.3,4.8,29.90,WNW,303,6.0,9.0,89,0.00,,---,0.00,VWS V14.01,2013-02-04 05:01:00,
2013-02-04 00:03:00,7.3,5.0,29.91,WNW,302,7.0,8.0,90,0.00,,---,0.00,VWS V14.01,2013-02-04 05:03:00,
2013-02-04 00:08:00,7.2,4.9,29.90,NW,310,5.0,8.0,90,0.00,,---,0.00,VWS V14.01,2013-02-04 05:08:00,
2013-02-04 00:13:00,7.1,4.8,29.91,NW,307,5.0,8.0,90,0.00,,---,0.00,VWS V14.01,2013-02-04 05:13:00,
2013-02-04 00:18:00,7.1,4.8,29.91,NW,315,4.0,8.0,90,0.00,,---,0.00,VWS V14.01,2013-02-04 05:18:00,
2013-02-04 00:23:00,7.0,4.7,29.91,NW,320,4.0,8.0,90,0.00,,---,0.00,VWS V14.01,2013-02-04 05:23:00,
2013-02-04 00:28:00,7.0,4.7,29.91,NW,325,4.0,8.0,90,0.00,,---,0.00,VWS V14.01,2013-02-04 05:28:00,
2013-02-04 00:33:00,6.9,4.3,29.91,North,352,5.0,6.0,89,0.00,,---,0.00,VWS V14.01,2013-02-04 05:33:00,
2013-02-04 00:38:00,6.5,4.0,29.91,NNE,13,5.0,6.0,89,0.00,,---,0.00,VWS V14.01,2013-02-04 05:38:00,
2013-02-04 00:43:00,6.3,3.8,29.91,North,6,3.0,6.0,89,0.00,,---,0.00,VWS V14.01,2013-02-04 05:43:00,
2013-02-04 00:48:00,5.9,3.4,29.92,North,6,1.0,6.0,89,0.00,,---,0.00,VWS V14.01,2013-02-04 05:48:00,
2013-02-04 00:53:00,5.8,3.3,29.92,NNE,16,3.0,6.0,89,0.00,,---,0.00,VWS V14.01,2013-02-04 05:53:00,
2013-02-04 00:58:00,5.9,3.4,29.92,NE,40,3.0,6.0,89,0.00,,---,0.00,VWS V14.01,2013-02-04 05:58:00,
2013-02-04 01:03:00,5.8,3.3,29.92,ENE,61,2.0,7.0,89,0.00,,---,0.00,VWS V14.01,2013-02-04 06:03:00,
2013-02-04 01:08:00,5.7,3.2,29.92,ENE,64,3.0,7.0,89,0.00,,---,0.00,VWS V14.01,2013-02-04 06:08:00,
2013-02-04 01:13:00,5.6,2.8,29.93,ENE,64,2.0,7.0,88,0.00,,---,0.00,VWS V14.01,2013-02-04 06:13:00,
2013-02-04 01:18:00,5.5,2.7,29.93,ENE,64,2.0,7.0,88,0.00,,---,0.00,VWS V14.01,2013-02-04 06:18:00,
2013-02-04 01:23:00,5.5,2.7,29.93,ENE,64,0.0,7.0,88,0.00,,---,0.00,VWS V14.01,2013-02-04 06:23:00,
2013-02-04 01:28:00,5.5,2.7,29.93,ENE,64,0.0,7.0,88,0.00,,---,0.00,VWS V14.01,2013-02-04 06:28:00,
2013-02-04 01:33:00,5.4,2.6,29.93,ENE,64,2.0,2.0,88,0.00,,---,0.00,VWS V14.01,2013-02-04 06:33:00,
2013-02-04 01:38:00,5.3,2.5,29.93,ENE,64,1.0,2.0,88,0.00,,---,0.00,VWS V14.01,2013-02-04 06:38:00,
2013-02-04 01:43:00,5.2,2.4,29.93,ENE,64,3.0,4.0,88,0.00,,---,0.00,VWS V14.01,2013-02-04 06:43:00,
2013-02-04 01:48:00,5.2,2.2,29.93,ENE,60,2.0,5.0,87,0.00,,---,0.00,VWS V14.01,2013-02-04 06:48:00,
2013-02-04 01:53:00,5.1,2.1,29.93,ENE,61,3.0,6.0,87,0.00,,---,0.00,VWS V14.01,2013-02-04 06:53:00,
2013-02-04 01:58:00,5.1,2.1,29.93,East,84,2.0,8.0,87,0.00,,---,0.00,VWS V14.01,2013-02-04 06:58:00,
2013-02-04 02:03:00,5.0,2.0,29.94,East,84,3.0,6.0,87,0.00,,---,0.00,VWS V14.01,2013-02-04 07:03:00,
2013-02-04 02:08:00,4.9,1.9,29.94,ENE,78,4.0,8.0,87,0.00,,---,0.00,VWS V14.01,2013-02-04 07:08:00,
2013-02-04 02:13:00,4.8,1.5,29.94,ENE,71,5.0,8.0,86,0.00,,---,0.00,VWS V14.01,2013-02-04 07:13:00,
2013-02-04 02:18:00,4.7,1.4,29.94,ENE,67,2.0,8.0,86,0.00,,---,0.00,VWS V14.01,2013-02-04 07:18:00,
2013-02-04 02:23:00,4.6,1.3,29.94,ENE,69,3.0,8.0,86,0.00,,---,0.00,VWS V14.01,2013-02-04 07:23:00,
2013-02-04 02:28:00,4.4,0.9,29.95,East,79,4.0,8.0,85,0.00,,---,0.00,VWS V14.01,2013-02-04 07:28:00,
2013-02-04 02:34:00,4.4,0.9,29.95,East,82,3.0,5.0,85,0.00,,---,0.00,VWS V14.01,2013-02-04 07:34:00,
2013-02-04 02:39:00,4.2,0.7,29.95,ENE,77,1.0,7.0,85,0.00,,---,0.00,VWS V14.01,2013-02-04 07:39:00,
2013-02-04 02:44:00,4.1,0.6,29.96,ENE,69,3.0,7.0,85,0.00,,---,0.00,VWS V14.01,2013-02-04 07:44:00,
2013-02-04 02:49:00,4.0,0.5,29.96,ENE,71,5.0,7.0,85,0.00,,---,0.00,VWS V14.01,2013-02-04 07:49:00,
2013-02-04 02:54:00,3.9,0.2,29.96,ENE,67,5.0,7.0,84,0.00,,---,0.00,VWS V14.01,2013-02-04 07:54:00,
2013-02-04 02:59:00,3.8,0.1,29.96,ENE,65,1.0,8.0,84,0.00,,---,0.00,VWS V14.01,2013-02-04 07:59:00,
2013-02-04 03:04:00,3.7,0.0,29.96,ENE,71,4.0,5.0,84,0.00,,---,0.00,VWS V14.01,2013-02-04 08:04:00,
2013-02-04 03:09:00,3.7,0.2,29.96,East,79,3.0,9.0,85,0.00,,---,0.00,VWS V14.01,2013-02-04 08:09:00,
2013-02-04 03:14:00,3.6,-0.1,29.96,ENE,68,4.0,9.0,84,0.00,,---,0.00,VWS V14.01,2013-02-04 08:14:00,
2013-02-04 03:19:00,3.5,-0.2,29.96,ENE,77,4.0,10.0,84,0.00,,---,0.00,VWS V14.01,2013-02-04 08:19:00,
2013-02-04 03:24:00,3.4,-0.3,29.96,ENE,65,3.0,10.0,84,0.00,,---,0.00,VWS V14.01,2013-02-04 08:24:00,
2013-02-04 03:29:00,3.3,-0.4,29.96,ENE,73,2.0,10.0,84,0.00,,---,0.00,VWS V14.01,2013-02-04 08:29:00,
2013-02-04 03:34:00,3.2,-0.5,29.96,ENE,67,3.0,5.0,84,0.00,,---,0.00,VWS V14.01,2013-02-04 08:34:00,
2013-02-04 03:39:00,3.2,-0.5,29.96,ENE,60,5.0,6.0,84,0.00,,---,0.00,VWS V14.01,2013-02-04 08:39:00,
2013-02-04 03:44:00,3.1,-0.6,29.96,ENE,66,4.0,8.0,84,0.00,,---,0.00,VWS V14.01,2013-02-04 08:44:00,
2013-02-04 03:49:00,3.0,-1.0,29.96,ENE,71,1.0,8.0,83,0.00,,---,0.00,VWS V14.01,2013-02-04 08:49:00,
2013-02-04 03:54:00,2.9,-0.8,29.96,ENE,63,3.0,8.0,84,0.00,,---,0.00,VWS V14.01,2013-02-04 08:54:00,
2013-02-04 03:59:00,2.9,-0.8,29.96,ENE,67,0.0,8.0,84,0.00,,---,0.00,VWS V14.01,2013-02-04 08:59:00,
2013-02-04 04:04:00,2.8,-0.9,29.96,ENE,63,3.0,5.0,84,0.00,,---,0.00,VWS V14.01,2013-02-04 09:04:00,
2013-02-04 04:09:00,2.7,-1.3,29.96,ENE,69,2.0,5.0,83,0.00,,---,0.00,VWS V14.01,2013-02-04 09:09:00,
2013-02-04 04:14:00,2.6,-1.4,29.96,ENE,69,1.0,5.0,83,0.00,,---,0.00,VWS V14.01,2013-02-04 09:14:00,
2013-02-04 04:19:00,2.5,-1.5,29.96,East,79,2.0,8.0,83,0.00,,---,0.00,VWS V14.01,2013-02-04 09:19:00,
2013-02-04 04:24:00,2.4,-1.6,29.96,East,82,4.0,9.0,83,0.00,,---,0.00,VWS V14.01,2013-02-04 09:24:00,
2013-02-04 04:29:00,2.3,-1.7,29.96,East,81,3.0,9.0,83,0.00,,---,0.00,VWS V14.01,2013-02-04 09:29:00,
2013-02-04 04:34:00,2.2,-1.8,29.96,East,81,5.0,5.0,83,0.00,,---,0.00,VWS V14.01,2013-02-04 09:34:00,
2013-02-04 04:39:00,2.0,-2.0,29.96,East,82,3.0,7.0,83,0.00,,---,0.00,VWS V14.01,2013-02-04 09:39:00,
2013-02-04 04:44:00,1.9,-2.1,29.96,East,81,4.0,7.0,83,0.00,,---,0.00,VWS V14.01,2013-02-04 09:44:00,
2013-02-04 04:49:00,1.7,-2.3,29.97,East,81,4.0,7.0,83,0.00,,---,0.00,VWS V14.01,2013-02-04 09:49:00,
2013-02-04 04:54:00,1.5,-2.5,29.97,East,82,3.0,7.0,83,0.00,,---,0.00,VWS V14.01,2013-02-04 09:54:00,
2013-02-04 04:59:00,1.3,-2.7,29.97,East,83,4.0,7.0,83,0.00,,---,0.00,VWS V14.01,2013-02-04 09:59:00,
2013-02-04 05:04:00,1.1,-2.8,29.97,East,83,5.0,7.0,83,0.00,,---,0.00,VWS V14.01,2013-02-04 10:04:00,
2013-02-04 05:09:00,0.9,-3.0,29.97,East,81,3.0,7.0,83,0.00,,---,0.00,VWS V14.01,2013-02-04 10:09:00,
2013-02-04 05:14:00,0.7,-3.2,29.97,East,81,3.0,7.0,83,0.00,,---,0.00,VWS V14.01,2013-02-04 10:14:00,
2013-02-04 05:20:00,0.4,-3.5,29.97,East,81,3.0,7.0,83,0.00,,---,0.00,VWS V14.01,2013-02-04 10:20:00,
2013-02-04 05:25:00,0.1,-3.8,29.97,East,79,3.0,7.0,83,0.00,,---,0.00,VWS V14.01,2013-02-04 10:25:00,
2013-02-04 05:30:00,-0.1,-4.0,29.97,East,79,5.0,7.0,83,0.00,,---,0.00,VWS V14.01,2013-02-04 10:30:00,
2013-02-04 05:35:00,-0.4,-4.3,29.97,East,79,4.0,5.0,83,0.00,,---,0.00,VWS V14.01,2013-02-04 10:35:00,
2013-02-04 05:40:00,-0.6,-4.5,29.97,East,79,0.0,5.0,83,0.00,,---,0.00,VWS V14.01,2013-02-04 10:40:00,
2013-02-04 05:45:00,-0.8,-4.7,29.97,East,79,2.0,5.0,83,0.00,,---,0.00,VWS V14.01,2013-02-04 10:45:00,
2013-02-04 05:50:00,-0.9,-4.6,29.97,East,79,3.0,5.0,84,0.00,,---,0.00,VWS V14.01,2013-02-04 10:50:00,
2013-02-04 05:55:00,-1.0,-4.9,29.98,East,79,3.0,5.0,83,0.00,,---,0.00,VWS V14.01,2013-02-04 10:55:00,
2013-02-04 06:00:00,-1.1,-5.0,29.98,East,79,3.0,5.0,83,0.00,,---,0.00,VWS V14.01,2013-02-04 11:00:00,
2013-02-04 06:05:00,-1.3,-5.2,29.98,East,79,4.0,4.0,83,0.00,,---,0.00,VWS V14.01,2013-02-04 11:05:00,
2013-02-04 06:10:00,-1.4,-5.1,29.98,East,79,3.0,4.0,84,0.00,,---,0.00,VWS V14.01,2013-02-04 11:10:00,
2013-02-04 06:15:00,-1.5,-5.2,29.98,East,79,3.0,4.0,84,0.00,,---,0.00,VWS V14.01,2013-02-04 11:15:00,
2013-02-04 06:20:00,-1.6,-5.2,29.98,East,79,3.0,5.0,84,0.00,,---,0.00,VWS V14.01,2013-02-04 11:20:00,
2013-02-04 06:25:00,-2.0,-5.9,29.98,North,6,3.0,5.0,83,0.00,,---,0.00,VWS V14.01,2013-02-04 11:25:00,
2013-02-04 06:30:00,-2.3,-6.2,29.98,North,6,2.0,5.0,83,0.00,,---,0.00,VWS V14.01,2013-02-04 11:30:00,
2013-02-04 06:35:00,-2.5,-6.4,29.98,North,6,2.0,3.0,83,0.00,,---,0.00,VWS V14.01,2013-02-04 11:35:00,
2013-02-04 06:40:00,-2.5,-6.1,29.98,North,6,3.0,3.0,84,0.00,,---,0.00,VWS V14.01,2013-02-04 11:40:00,
2013-02-04 06:45:00,-2.6,-6.2,29.98,NNE,14,2.0,3.0,84,0.00,,---,0.00,VWS V14.01,2013-02-04 11:45:00,
2013-02-04 06:50:00,-2.6,-6.2,29.98,East,80,4.0,5.0,84,0.00,,---,0.00,VWS V14.01,2013-02-04 11:50:00,
2013-02-04 06:55:00,-2.8,-6.4,29.98,East,80,5.0,7.0,84,0.00,,---,0.00,VWS V14.01,2013-02-04 11:55:00,
2013-02-04 07:00:00,-3.0,-6.6,29.98,East,82,7.0,7.0,84,0.00,,---,0.00,VWS V14.01,2013-02-04 12:00:00,
2013-02-04 07:05:00,-3.2,-6.8,29.98,East,82,5.0,8.0,84,0.00,,---,0.00,VWS V14.01,2013-02-04 12:05:00,
2013-02-04 07:10:00,-3.4,-7.0,29.98,East,83,5.0,8.0,84,0.00,,---,0.00,VWS V14.01,2013-02-04 12:10:00,
2013-02-04 07:15:00,-3.6,-7.2,29.98,East,83,4.0,8.0,84,0.00,,---,0.00,VWS V14.01,2013-02-04 12:15:00,
2013-02-04 07:20:00,-3.9,-7.5,29.98,East,83,4.0,8.0,84,0.00,,---,0.00,VWS V14.01,2013-02-04 12:20:00,
2013-02-04 07:25:00,-4.0,-7.6,29.98,East,83,7.0,8.0,84,0.00,,---,0.00,VWS V14.01,2013-02-04 12:25:00,
2013-02-04 07:30:00,-4.1,-7.7,29.99,East,83,7.0,8.0,84,0.00,,---,0.00,VWS V14.01,2013-02-04 12:30:00,
2013-02-04 07:35:00,-4.3,-7.9,29.99,East,83,5.0,8.0,84,0.00,,---,0.00,VWS V14.01,2013-02-04 12:35:00,
2013-02-04 07:40:00,-4.4,-8.0,29.99,East,83,5.0,8.0,84,0.00,,---,0.00,VWS V14.01,2013-02-04 12:40:00,
2013-02-04 07:45:00,-4.5,-8.1,29.99,East,83,7.0,8.0,84,0.00,,---,0.00,VWS V14.01,2013-02-04 12:45:00,
2013-02-04 07:50:00,-4.6,-8.2,29.99,East,83,7.0,8.0,84,0.00,,---,0.00,VWS V14.01,2013-02-04 12:50:00,
2013-02-04 07:55:00,-4.7,-8.1,29.99,East,83,7.0,8.0,85,0.00,,---,0.00,VWS V14.01,2013-02-04 12:55:00,
2013-02-04 08:00:00,-4.8,-8.1,29.99,East,84,6.0,8.0,85,0.00,,---,0.00,VWS V14.01,2013-02-04 13:00:00,
2013-02-04 08:05:00,-5.0,-8.3,29.99,East,84,4.0,6.0,85,0.00,,---,0.00,VWS V14.01,2013-02-04 13:05:00,
2013-02-04 08:10:00,-5.0,-8.3,29.99,East,84,4.0,7.0,85,0.00,,---,0.00,VWS V14.01,2013-02-04 13:10:00,
2013-02-04 08:15:00,-5.1,-8.4,29.99,East,84,5.0,7.0,85,0.00,,---,0.00,VWS V14.01,2013-02-04 13:15:00,
2013-02-04 08:20:00,-5.0,-8.3,29.99,East,84,5.0,7.0,85,0.00,,---,0.00,VWS V14.01,2013-02-04 13:20:00,
2013-02-04 08:25:00,-5.0,-8.3,30.00,East,84,6.0,7.0,85,0.00,,---,0.00,VWS V14.01,2013-02-04 13:25:00,
2013-02-04 08:30:00,-4.9,-8.2,30.00,East,84,4.0,7.0,85,0.00,,---,0.00,VWS V14.01,2013-02-04 13:30:00,
2013-02-04 08:35:00,-4.8,-8.4,30.00,East,84,4.0,6.0,84,0.00,,---,0.00,VWS V14.01,2013-02-04 13:35:00,
2013-02-04 08:40:00,-4.6,-7.9,30.00,East,84,4.0,6.0,85,0.00,,---,0.00,VWS V14.01,2013-02-04 13:40:00,
2013-02-04 08:45:00,-4.4,-8.0,30.00,East,84,4.0,6.0,84,0.00,,---,0.00,VWS V14.01,2013-02-04 13:45:00,
2013-02-04 08:50:00,-4.2,-7.8,30.00,East,85,5.0,8.0,84,0.00,,---,0.00,VWS V14.01,2013-02-04 13:50:00,
2013-02-04 08:55:00,-4.0,-7.6,30.01,East,85,3.0,8.0,84,0.00,,---,0.00,VWS V14.01,2013-02-04 13:55:00,
2013-02-04 09:01:00,-3.7,-7.3,30.01,East,86,5.0,8.0,84,0.00,,---,0.00,VWS V14.01,2013-02-04 14:01:00,
2013-02-04 09:06:00,-3.3,-6.9,30.00,East,86,2.0,6.0,84,0.00,,---,0.00,VWS V14.01,2013-02-04 14:06:00,
2013-02-04 09:11:00,-2.9,-6.5,30.00,East,86,5.0,6.0,84,0.00,,---,0.00,VWS V14.01,2013-02-04 14:11:00,
2013-02-04 09:16:00,-2.4,-6.0,30.00,East,87,4.0,6.0,84,0.00,,---,0.00,VWS V14.01,2013-02-04 14:16:00,
2013-02-04 09:21:00,-1.8,-5.4,30.01,East,87,3.0,6.0,84,0.00,,---,0.00,VWS V14.01,2013-02-04 14:21:00,
2013-02-04 09:26:00,-1.3,-4.9,30.01,East,89,2.0,6.0,84,0.00,,---,0.00,VWS V14.01,2013-02-04 14:26:00,
2013-02-04 09:31:00,-0.9,-4.8,30.01,East,90,4.0,6.0,83,0.00,,---,0.00,VWS V14.01,2013-02-04 14:31:00,
2013-02-04 09:36:00,-0.5,-4.4,30.01,East,90,1.0,5.0,83,0.00,,---,0.00,VWS V14.01,2013-02-04 14:36:00,
2013-02-04 09:41:00,-0.1,-3.9,30.01,East,91,4.0,6.0,83,0.00,,---,0.00,VWS V14.01,2013-02-04 14:41:00,
2013-02-04 09:46:00,0.5,-3.7,30.01,East,92,1.0,6.0,82,0.00,,---,0.00,VWS V14.01,2013-02-04 14:46:00,
2013-02-04 09:51:00,1.0,-3.2,30.00,East,92,5.0,6.0,82,0.00,,---,0.00,VWS V14.01,2013-02-04 14:51:00,
2013-02-04 09:56:00,1.3,-3.2,30.00,East,99,6.0,7.0,81,0.00,,---,0.00,VWS V14.01,2013-02-04 14:56:00,
2013-02-04 10:01:00,1.7,-3.0,30.00,ESE,103,1.0,8.0,80,0.00,,---,0.00,VWS V14.01,2013-02-04 15:01:00,
2013-02-04 10:06:00,2.3,-2.4,30.00,ESE,103,0.0,4.0,80,0.00,,---,0.00,VWS V14.01,2013-02-04 15:06:00,
2013-02-04 10:11:00,2.8,-2.0,30.00,ESE,102,4.0,6.0,80,0.00,,---,0.00,VWS V14.01,2013-02-04 15:11:00,
2013-02-04 10:16:00,3.2,-1.8,30.00,ESE,102,5.0,6.0,79,0.00,,---,0.00,VWS V14.01,2013-02-04 15:16:00,
2013-02-04 10:21:00,3.6,-1.7,30.00,ESE,103,2.0,6.0,78,0.00,,---,0.00,VWS V14.01,2013-02-04 15:21:00,
2013-02-04 10:26:00,4.0,-1.3,30.00,ESE,104,4.0,6.0,78,0.00,,---,0.00,VWS V14.01,2013-02-04 15:26:00,
2013-02-04 10:31:00,4.4,-1.2,30.00,ESE,104,0.0,6.0,77,0.00,,---,0.00,VWS V14.01,2013-02-04 15:31:00,
2013-02-04 10:36:00,5.0,-0.6,30.00,ESE,106,3.0,4.0,77,0.00,,---,0.00,VWS V14.01,2013-02-04 15:36:00,
2013-02-04 10:41:00,5.3,-0.6,30.00,ESE,108,5.0,7.0,76,0.00,,---,0.00,VWS V14.01,2013-02-04 15:41:00,
2013-02-04 10:46:00,5.6,-0.6,30.00,ESE,106,1.0,7.0,75,0.00,,---,0.00,VWS V14.01,2013-02-04 15:46:00,
2013-02-04 10:51:00,5.9,-0.6,29.99,East,92,1.0,8.0,74,0.00,,---,0.00,VWS V14.01,2013-02-04 15:51:00,
2013-02-04 10:56:00,6.2,-0.3,29.99,ESE,108,3.0,8.0,74,0.00,,---,0.00,VWS V14.01,2013-02-04 15:56:00,
2013-02-04 11:01:00,6.4,-0.4,29.99,ESE,117,6.0,8.0,73,0.00,,---,0.00,VWS V14.01,2013-02-04 16:01:00,
2013-02-04 11:06:00,6.5,-0.6,29.99,ESE,102,5.0,9.0,72,0.00,,---,0.00,VWS V14.01,2013-02-04 16:06:00,
2013-02-04 11:11:00,6.6,-0.8,30.00,ESE,105,7.0,9.0,71,0.00,,---,0.00,VWS V14.01,2013-02-04 16:11:00,
2013-02-04 11:16:00,6.9,-0.2,30.00,East,97,4.0,9.0,72,0.00,,---,0.00,VWS V14.01,2013-02-04 16:16:00,
2013-02-04 11:21:00,7.3,-0.1,30.00,East,100,4.0,9.0,71,0.00,,---,0.00,VWS V14.01,2013-02-04 16:21:00,
2013-02-04 11:26:00,7.2,-0.5,30.00,ENE,58,2.0,9.0,70,0.00,,---,0.00,VWS V14.01,2013-02-04 16:26:00,
2013-02-04 11:31:00,6.9,-0.8,29.99,ENE,73,3.0,4.0,70,0.00,,---,0.00,VWS V14.01,2013-02-04 16:31:00,
2013-02-04 11:36:00,7.0,-1.0,29.99,East,90,4.0,8.0,69,0.00,,---,0.00,VWS V14.01,2013-02-04 16:36:00,
2013-02-04 11:41:00,7.3,-0.7,29.99,East,82,1.0,9.0,69,0.00,,---,0.00,VWS V14.01,2013-02-04 16:41:00,
2013-02-04 11:46:00,7.6,-0.7,29.99,East,93,4.0,9.0,68,0.00,,---,0.00,VWS V14.01,2013-02-04 16:46:00,
2013-02-04 11:51:00,7.8,-0.9,29.99,East,98,7.0,9.0,67,0.00,,---,0.00,VWS V14.01,2013-02-04 16:51:00,
2013-02-04 11:56:00,8.0,-0.7,29.99,East,82,5.0,9.0,67,0.00,,---,0.00,VWS V14.01,2013-02-04 16:56:00,
2013-02-04 12:01:00,8.3,-0.1,29.99,East,79,4.0,5.0,68,0.00,,---,0.00,VWS V14.01,2013-02-04 17:01:00,
2013-02-04 12:06:00,8.5,0.1,29.99,ENE,77,4.0,8.0,68,0.00,,---,0.00,VWS V14.01,2013-02-04 17:06:00,
2013-02-04 12:11:00,9.0,0.3,29.99,East,86,5.0,8.0,67,0.00,,---,0.00,VWS V14.01,2013-02-04 17:11:00,
2013-02-04 12:16:00,8.7,0.0,29.99,ENE,78,2.0,8.0,67,0.00,,---,0.00,VWS V14.01,2013-02-04 17:16:00,
2013-02-04 12:21:00,9.0,0.6,29.98,ENE,78,1.0,8.0,68,0.00,,---,0.00,VWS V14.01,2013-02-04 17:21:00,
2013-02-04 12:27:00,9.9,1.1,29.98,ENE,78,2.0,8.0,67,0.00,,---,0.00,VWS V14.01,2013-02-04 17:27:00,
2013-02-04 12:32:00,10.3,1.5,29.98,ENE,78,1.0,1.0,67,0.00,,---,0.00,VWS V14.01,2013-02-04 17:32:00,
2013-02-04 12:37:00,9.6,0.5,29.98,ENE,65,2.0,4.0,66,0.00,,---,0.00,VWS V14.01,2013-02-04 17:37:00,
2013-02-04 12:42:00,8.2,-0.5,29.98,ENE,63,3.0,4.0,67,0.00,,---,0.00,VWS V14.01,2013-02-04 17:42:00,
2013-02-04 12:47:00,7.6,-0.4,29.97,ENE,63,0.0,4.0,69,0.00,,---,0.00,VWS V14.01,2013-02-04 17:47:00,
2013-02-04 12:52:00,7.8,0.1,29.97,ENE,63,2.0,4.0,70,0.00,,---,0.00,VWS V14.01,2013-02-04 17:52:00,
2013-02-04 12:57:00,7.7,-0.3,29.97,ENE,63,1.0,4.0,69,0.00,,---,0.00,VWS V14.01,2013-02-04 17:57:00,
2013-02-04 13:02:00,7.8,0.1,29.97,ENE,63,0.0,1.0,70,0.00,,---,0.00,VWS V14.01,2013-02-04 18:02:00,
2013-02-04 13:07:00,7.7,0.0,29.97,ENE,63,2.0,3.0,70,0.00,,---,0.00,VWS V14.01,2013-02-04 18:07:00,
2013-02-04 13:12:00,7.5,-0.2,29.97,ENE,63,2.0,3.0,70,0.00,,---,0.00,VWS V14.01,2013-02-04 18:12:00,
2013-02-04 13:17:00,7.9,0.5,29.96,ENE,63,2.0,3.0,71,0.00,,---,0.00,VWS V14.01,2013-02-04 18:17:00,
2013-02-04 13:22:00,7.7,-0.3,29.96,ENE,63,2.0,3.0,69,0.00,,---,0.00,VWS V14.01,2013-02-04 18:22:00,
2013-02-04 13:27:00,7.8,0.1,29.96,ENE,63,2.0,3.0,70,0.00,,---,0.00,VWS V14.01,2013-02-04 18:27:00,
2013-02-04 13:32:00,8.1,0.4,29.96,ENE,63,1.0,3.0,70,0.00,,---,0.00,VWS V14.01,2013-02-04 18:32:00,
2013-02-04 13:37:00,8.1,0.7,29.95,ENE,61,3.0,5.0,71,0.00,,---,0.00,VWS V14.01,2013-02-04 18:37:00,
2013-02-04 13:42:00,8.3,0.9,29.95,ENE,61,0.0,5.0,71,0.00,,---,0.00,VWS V14.01,2013-02-04 18:42:00,
2013-02-04 13:47:00,8.4,0.9,29.95,ENE,61,0.0,5.0,71,0.00,,---,0.00,VWS V14.01,2013-02-04 18:47:00,
2013-02-04 13:53:00,8.7,1.5,29.95,ENE,61,2.0,5.0,72,0.00,,---,0.00,VWS V14.01,2013-02-04 18:53:00,
2013-02-04 13:58:00,8.9,1.4,29.95,ENE,61,2.0,5.0,71,0.00,,---,0.00,VWS V14.01,2013-02-04 18:58:00,
2013-02-04 14:03:00,8.9,1.4,29.95,ENE,61,1.0,2.0,71,0.00,,---,0.00,VWS V14.01,2013-02-04 19:03:00,
2013-02-04 14:08:00,9.0,1.5,29.95,ENE,61,2.0,2.0,71,0.00,,---,0.00,VWS V14.01,2013-02-04 19:08:00,
2013-02-04 14:13:00,9.0,1.2,29.95,ENE,61,3.0,3.0,70,0.00,,---,0.00,VWS V14.01,2013-02-04 19:13:00,
2013-02-04 14:18:00,9.0,1.5,29.94,ENE,61,3.0,3.0,71,0.00,,---,0.00,VWS V14.01,2013-02-04 19:18:00,
2013-02-04 14:23:00,9.0,1.2,29.94,ENE,61,5.0,5.0,70,0.00,,---,0.00,VWS V14.01,2013-02-04 19:23:00,
2013-02-04 14:28:00,8.9,1.1,29.94,ENE,60,5.0,5.0,70,0.00,,---,0.00,VWS V14.01,2013-02-04 19:28:00,
2013-02-04 14:33:00,8.9,1.4,29.94,NNE,15,5.0,5.0,71,0.00,,---,0.00,VWS V14.01,2013-02-04 19:33:00,
2013-02-04 14:38:00,8.9,1.7,29.94,North,7,5.0,6.0,72,0.00,,---,0.00,VWS V14.01,2013-02-04 19:38:00,
2013-02-04 14:43:00,8.9,1.7,29.94,North,356,5.0,6.0,72,0.00,,---,0.00,VWS V14.01,2013-02-04 19:43:00,
2013-02-04 14:48:00,9.0,2.1,29.94,North,352,6.0,6.0,73,0.00,,---,0.00,VWS V14.01,2013-02-04 19:48:00,
2013-02-04 14:53:00,9.0,2.1,29.94,North,352,5.0,6.0,73,0.00,,---,0.00,VWS V14.01,2013-02-04 19:53:00,
2013-02-04 14:58:00,9.1,2.2,29.94,North,352,4.0,6.0,73,0.00,,---,0.00,VWS V14.01,2013-02-04 19:58:00,
2013-02-04 15:03:00,9.2,2.6,29.94,North,352,3.0,4.0,74,0.00,,---,0.00,VWS V14.01,2013-02-04 20:03:00,
2013-02-04 15:08:00,9.5,2.9,29.94,North,352,3.0,4.0,74,0.00,,---,0.00,VWS V14.01,2013-02-04 20:08:00,
2013-02-04 15:13:00,9.8,2.9,29.94,North,352,1.0,4.0,73,0.00,,---,0.00,VWS V14.01,2013-02-04 20:13:00,
2013-02-04 15:18:00,10.1,3.2,29.94,North,352,0.0,4.0,73,0.00,,---,0.00,VWS V14.01,2013-02-04 20:18:00,
2013-02-04 15:23:00,10.4,3.5,29.94,North,352,0.0,4.0,73,0.00,,---,0.00,VWS V14.01,2013-02-04 20:23:00,
2013-02-04 15:28:00,10.7,3.5,29.94,North,352,0.0,4.0,72,0.00,,---,0.00,VWS V14.01,2013-02-04 20:28:00,
2013-02-04 15:33:00,10.8,3.6,29.94,North,352,1.0,2.0,72,0.00,,---,0.00,VWS V14.01,2013-02-04 20:33:00,
2013-02-04 15:38:00,10.9,3.7,29.94,North,352,1.0,2.0,72,0.00,,---,0.00,VWS V14.01,2013-02-04 20:38:00,
2013-02-04 15:43:00,10.8,3.6,29.94,North,352,1.0,2.0,72,0.00,,---,0.00,VWS V14.01,2013-02-04 20:43:00,
2013-02-04 15:48:00,10.9,3.7,29.94,North,352,0.0,2.0,72,0.00,,---,0.00,VWS V14.01,2013-02-04 20:48:00,
2013-02-04 15:53:00,10.9,3.4,29.93,North,352,1.0,2.0,71,0.00,,---,0.00,VWS V14.01,2013-02-04 20:53:00,
2013-02-04 15:58:00,11.0,3.5,29.93,North,352,1.0,2.0,71,0.00,,---,0.00,VWS V14.01,2013-02-04 20:58:00,
2013-02-04 16:03:00,11.0,3.5,29.93,North,352,0.0,0.0,71,0.00,,---,0.00,VWS V14.01,2013-02-04 21:03:00,
2013-02-04 16:08:00,11.1,3.5,29.93,North,352,0.0,1.0,71,0.00,,---,0.00,VWS V14.01,2013-02-04 21:08:00,
2013-02-04 16:13:00,11.2,3.7,29.93,North,352,0.0,1.0,71,0.00,,---,0.00,VWS V14.01,2013-02-04 21:13:00,
2013-02-04 16:18:00,11.2,3.7,29.93,North,352,0.0,1.0,71,0.00,,---,0.00,VWS V14.01,2013-02-04 21:18:00,
2013-02-04 16:23:00,11.6,4.0,29.92,North,352,0.0,1.0,71,0.00,,---,0.00,VWS V14.01,2013-02-04 21:23:00,
2013-02-04 16:28:00,12.3,4.7,29.92,North,352,0.0,2.0,71,0.00,,---,0.00,VWS V14.01,2013-02-04 21:28:00,
2013-02-04 16:33:00,12.6,5.0,29.92,North,352,0.0,1.0,71,0.00,,---,0.00,VWS V14.01,2013-02-04 21:33:00,
2013-02-04 16:38:00,13.1,5.5,29.92,North,352,0.0,2.0,71,0.00,,---,0.00,VWS V14.01,2013-02-04 21:38:00,
2013-02-04 16:43:00,13.2,5.3,29.92,North,352,0.0,3.0,70,0.00,,---,0.00,VWS V14.01,2013-02-04 21:43:00,
2013-02-04 16:48:00,13.2,5.3,29.92,North,352,3.0,3.0,70,0.00,,---,0.00,VWS V14.01,2013-02-04 21:48:00,
2013-02-04 16:53:00,13.1,5.5,29.92,North,352,2.0,3.0,71,0.00,,---,0.00,VWS V14.01,2013-02-04 21:53:00,
2013-02-04 16:58:00,13.3,6.0,29.91,North,352,1.0,3.0,72,0.00,,---,0.00,VWS V14.01,2013-02-04 21:58:00,
2013-02-04 17:04:00,13.4,6.1,29.91,North,352,0.0,3.0,72,0.00,,---,0.00,VWS V14.01,2013-02-04 22:04:00,
2013-02-04 17:09:00,13.3,6.0,29.91,North,352,0.0,4.0,72,0.00,,---,0.00,VWS V14.01,2013-02-04 22:09:00,
2013-02-04 17:14:00,13.3,6.3,29.91,North,352,0.0,4.0,73,0.00,,---,0.00,VWS V14.01,2013-02-04 22:14:00,
2013-02-04 17:19:00,13.2,6.5,29.91,North,352,1.0,4.0,74,0.00,,---,0.00,VWS V14.01,2013-02-04 22:19:00,
2013-02-04 17:24:00,12.8,6.4,29.91,North,352,2.0,4.0,75,0.00,,---,0.00,VWS V14.01,2013-02-04 22:24:00,
2013-02-04 17:29:00,12.3,6.5,29.91,North,352,2.0,4.0,77,0.00,,---,0.00,VWS V14.01,2013-02-04 22:29:00,
2013-02-04 17:34:00,12.1,6.3,29.91,North,352,0.0,0.0,77,0.00,,---,0.00,VWS V14.01,2013-02-04 22:34:00,
2013-02-04 17:39:00,11.7,5.9,29.91,North,352,0.0,0.0,77,0.00,,---,0.00,VWS V14.01,2013-02-04 22:39:00,
2013-02-04 17:44:00,11.5,6.0,29.91,North,352,0.0,0.0,78,0.00,,---,0.00,VWS V14.01,2013-02-04 22:44:00,
2013-02-04 17:49:00,11.2,6.0,29.91,North,352,0.0,0.0,79,0.00,,---,0.00,VWS V14.01,2013-02-04 22:49:00,
2013-02-04 17:54:00,10.9,5.7,29.91,North,352,0.0,0.0,79,0.00,,---,0.00,VWS V14.01,2013-02-04 22:54:00,
2013-02-04 17:59:00,10.8,5.9,29.91,North,352,0.0,0.0,80,0.00,,---,0.00,VWS V14.01,2013-02-04 22:59:00,
2013-02-04 18:04:00,10.7,5.8,29.91,North,352,2.0,2.0,80,0.00,,---,0.00,VWS V14.01,2013-02-04 23:04:00,
2013-02-04 18:09:00,10.4,5.5,29.91,North,352,1.0,2.0,80,0.00,,---,0.00,VWS V14.01,2013-02-04 23:09:00,
2013-02-04 18:14:00,10.2,5.3,29.91,North,352,1.0,2.0,80,0.00,,---,0.00,VWS V14.01,2013-02-04 23:14:00,
2013-02-04 18:19:00,10.1,5.4,29.91,North,352,1.0,2.0,81,0.00,,---,0.00,VWS V14.01,2013-02-04 23:19:00,
2013-02-04 18:24:00,10.0,5.3,29.91,North,352,1.0,2.0,81,0.00,,---,0.00,VWS V14.01,2013-02-04 23:24:00,
2013-02-04 18:29:00,9.9,5.2,29.91,North,352,1.0,2.0,81,0.00,,---,0.00,VWS V14.01,2013-02-04 23:29:00,
2013-02-04 18:34:00,9.7,5.1,29.91,North,352,1.0,3.0,81,0.00,,---,0.00,VWS V14.01,2013-02-04 23:34:00,
2013-02-04 18:39:00,9.6,5.2,29.91,North,352,1.0,3.0,82,0.00,,---,0.00,VWS V14.01,2013-02-04 23:39:00,
2013-02-04 18:44:00,9.6,5.2,29.91,North,352,1.0,3.0,82,0.00,,---,0.00,VWS V14.01,2013-02-04 23:44:00,
2013-02-04 18:49:00,9.7,5.3,29.91,North,352,2.0,3.0,82,0.00,,---,0.00,VWS V14.01,2013-02-04 23:49:00,
2013-02-04 18:54:00,9.9,5.5,29.90,North,352,3.0,3.0,82,0.00,,---,0.00,VWS V14.01,2013-02-04 23:54:00,
2013-02-04 18:59:00,10.0,5.6,29.91,North,352,2.0,3.0,82,0.00,,---,0.00,VWS V14.01,2013-02-04 23:59:00,
2013-02-04 19:04:00,9.9,5.5,29.91,North,352,1.0,3.0,82,0.00,,---,0.00,VWS V14.01,2013-02-05 00:04:00,
2013-02-04 19:09:00,9.6,4.9,29.91,North,352,3.0,3.0,81,0.00,,---,0.00,VWS V14.01,2013-02-05 00:09:00,
2013-02-04 19:14:00,10.0,5.6,29.91,North,352,4.0,5.0,82,0.00,,---,0.00,VWS V14.01,2013-02-05 00:14:00,
2013-02-04 19:19:00,10.3,5.9,29.91,NNW,346,5.0,6.0,82,0.00,,---,0.00,VWS V14.01,2013-02-05 00:19:00,
2013-02-04 19:24:00,10.4,5.7,29.91,WNW,289,5.0,6.0,81,0.00,,---,0.00,VWS V14.01,2013-02-05 00:24:00,
2013-02-04 19:29:00,10.3,5.6,29.92,WNW,282,6.0,6.0,81,0.00,,---,0.00,VWS V14.01,2013-02-05 00:29:00,
2013-02-04 19:34:00,10.1,5.4,29.91,West,281,6.0,6.0,81,0.00,,---,0.00,VWS V14.01,2013-02-05 00:34:00,
2013-02-04 19:40:00,9.9,5.5,29.92,West,276,6.0,7.0,82,0.00,,---,0.00,VWS V14.01,2013-02-05 00:40:00,
2013-02-04 19:44:00,9.7,5.3,29.92,West,276,7.0,7.0,82,0.00,,---,0.00,VWS V14.01,2013-02-05 00:44:00,
2013-02-04 19:49:00,9.4,5.0,29.92,West,276,6.0,7.0,82,0.00,,---,0.00,VWS V14.01,2013-02-05 00:49:00,
2013-02-04 19:54:00,9.1,5.0,29.92,West,276,7.0,8.0,83,0.00,,---,0.00,VWS V14.01,2013-02-05 00:54:00,
2013-02-04 20:00:00,8.9,4.8,29.92,West,276,7.0,8.0,83,0.00,,---,0.00,VWS V14.01,2013-02-05 01:00:00,
2013-02-04 20:05:00,8.7,4.6,29.92,West,275,6.0,8.0,83,0.00,,---,0.00,VWS V14.01,2013-02-05 01:05:00,
2013-02-04 20:10:00,8.6,4.8,29.92,West,271,8.0,8.0,84,0.00,,---,0.00,VWS V14.01,2013-02-05 01:10:00,
2013-02-04 20:15:00,8.5,4.7,29.93,West,271,7.0,8.0,84,0.00,,---,0.00,VWS V14.01,2013-02-05 01:15:00,
2013-02-04 20:20:00,8.2,4.4,29.93,West,274,8.0,9.0,84,0.00,,---,0.00,VWS V14.01,2013-02-05 01:20:00,
2013-02-04 20:25:00,7.9,4.1,29.93,West,271,8.0,9.0,84,0.00,,---,0.00,VWS V14.01,2013-02-05 01:25:00,
2013-02-04 20:30:00,7.9,4.1,29.93,West,273,8.0,10.0,84,0.00,,---,0.00,VWS V14.01,2013-02-05 01:30:00,
2013-02-04 20:35:00,8.0,4.4,29.93,West,266,7.0,9.0,85,0.00,,---,0.00,VWS V14.01,2013-02-05 01:35:00,
2013-02-04 20:40:00,8.1,4.5,29.93,West,269,9.0,10.0,85,0.00,,---,0.00,VWS V14.01,2013-02-05 01:40:00,
2013-02-04 20:45:00,8.3,4.7,29.93,West,267,9.0,10.0,85,0.00,,---,0.00,VWS V14.01,2013-02-05 01:45:00,
2013-02-04 20:50:00,8.6,5.0,29.93,West,266,8.0,10.0,85,0.00,,---,0.00,VWS V14.01,2013-02-05 01:50:00,
2013-02-04 20:55:00,8.6,4.8,29.93,West,269,8.0,10.0,84,0.00,,---,0.00,VWS V14.01,2013-02-05 01:55:00,
2013-02-04 21:00:00,8.7,4.9,29.93,West,271,9.0,10.0,84,0.00,,---,0.00,VWS V14.01,2013-02-05 02:00:00,
2013-02-04 21:05:00,9.0,5.2,29.93,West,272,9.0,10.0,84,0.00,,---,0.00,VWS V14.01,2013-02-05 02:05:00,
2013-02-04 21:10:00,9.0,4.9,29.93,West,272,9.0,11.0,83,0.00,,---,0.00,VWS V14.01,2013-02-05 02:10:00,
2013-02-04 21:15:00,9.2,4.8,29.93,West,278,9.0,12.0,82,0.00,,---,0.00,VWS V14.01,2013-02-05 02:15:00,
2013-02-04 21:20:00,9.3,4.7,29.93,West,279,10.0,12.0,81,0.00,,---,0.00,VWS V14.01,2013-02-05 02:20:00,
2013-02-04 21:25:00,9.4,4.5,29.93,West,275,10.0,12.0,80,0.00,,---,0.00,VWS V14.01,2013-02-05 02:25:00,
2013-02-04 21:30:00,9.4,4.5,29.93,West,274,11.0,12.0,80,0.00,,---,0.00,VWS V14.01,2013-02-05 02:30:00,
2013-02-04 21:35:00,9.1,3.9,29.93,West,266,9.0,12.0,79,0.00,,---,0.00,VWS V14.01,2013-02-05 02:35:00,
2013-02-04 21:40:00,8.8,3.6,29.93,West,266,8.0,12.0,79,0.00,,---,0.00,VWS V14.01,2013-02-05 02:40:00,
2013-02-04 21:45:00,8.6,3.4,29.93,West,270,9.0,12.0,79,0.00,,---,0.00,VWS V14.01,2013-02-05 02:45:00,
2013-02-04 21:50:00,8.6,3.4,29.93,West,275,11.0,12.0,79,0.00,,---,0.00,VWS V14.01,2013-02-05 02:50:00,
2013-02-04 21:55:00,8.7,3.3,29.92,West,272,10.0,12.0,78,0.00,,---,0.00,VWS V14.01,2013-02-05 02:55:00,
2013-02-04 22:00:00,8.6,3.2,29.93,West,270,10.0,12.0,78,0.00,,---,0.00,VWS V14.01,2013-02-05 03:00:00,
2013-02-04 22:05:00,8.4,3.0,29.93,West,266,10.0,10.0,78,0.00,,---,0.00,VWS V14.01,2013-02-05 03:05:00,
2013-02-04 22:10:00,8.3,2.9,29.92,West,273,8.0,11.0,78,0.00,,---,0.00,VWS V14.01,2013-02-05 03:10:00,
2013-02-04 22:15:00,8.2,2.8,29.92,West,265,8.0,12.0,78,0.00,,---,0.00,VWS V14.01,2013-02-05 03:15:00,
2013-02-04 22:20:00,8.0,2.6,29.92,West,273,9.0,12.0,78,0.00,,---,0.00,VWS V14.01,2013-02-05 03:20:00,
2013-02-04 22:25:00,7.9,2.5,29.92,West,264,8.0,12.0,78,0.00,,---,0.00,VWS V14.01,2013-02-05 03:25:00,
2013-02-04 22:30:00,8.1,2.7,29.92,West,259,9.0,12.0,78,0.00,,---,0.00,VWS V14.01,2013-02-05 03:30:00,
2013-02-04 22:35:00,8.0,2.6,29.92,West,262,9.0,12.0,78,0.00,,---,0.00,VWS V14.01,2013-02-05 03:35:00,
2013-02-04 22:40:00,7.9,2.5,29.92,West,262,8.0,12.0,78,0.00,,---,0.00,VWS V14.01,2013-02-05 03:40:00,
2013-02-04 22:45:00,8.0,2.6,29.92,West,262,9.0,12.0,78,0.00,,---,0.00,VWS V14.01,2013-02-05 03:45:00,
2013-02-04 22:50:00,7.8,2.4,29.92,West,262,9.0,12.0,78,0.00,,---,0.00,VWS V14.01,2013-02-05 03:50:00,
2013-02-04 22:55:00,7.7,2.3,29.92,West,261,9.0,12.0,78,0.00,,---,0.00,VWS V14.01,2013-02-05 03:55:00,
2013-02-04 23:00:00,7.7,2.6,29.92,WSW,258,9.0,12.0,79,0.00,,---,0.00,VWS V14.01,2013-02-05 04:00:00,
2013-02-04 23:05:00,7.7,2.6,29.91,West,260,9.0,11.0,79,0.00,,---,0.00,VWS V14.01,2013-02-05 04:05:00,
2013-02-04 23:10:00,8.1,3.0,29.91,West,262,9.0,11.0,79,0.00,,---,0.00,VWS V14.01,2013-02-05 04:10:00,
2013-02-04 23:15:00,8.0,2.8,29.91,WSW,257,10.0,11.0,79,0.00,,---,0.00,VWS V14.01,2013-02-05 04:15:00,
2013-02-04 23:20:00,7.7,2.6,29.91,WSW,257,9.0,11.0,79,0.00,,---,0.00,VWS V14.01,2013-02-05 04:20:00,
2013-02-04 23:26:00,7.5,2.4,29.91,WSW,256,8.0,11.0,79,0.00,,---,0.00,VWS V14.01,2013-02-05 04:26:00,
2013-02-04 23:31:00,7.6,2.5,29.91,West,262,11.0,11.0,79,0.00,,---,0.00,VWS V14.01,2013-02-05 04:31:00,
2013-02-04 23:36:00,8.0,2.8,29.91,West,261,9.0,11.0,79,0.00,,---,0.00,VWS V14.01,2013-02-05 04:36:00,
2013-02-04 23:41:00,8.1,3.0,29.91,West,260,10.0,11.0,79,0.00,,---,0.00,VWS V14.01,2013-02-05 04:41:00,
2013-02-04 23:46:00,8.1,3.0,29.91,West,265,9.0,11.0,79,0.00,,---,0.00,VWS V14.01,2013-02-05 04:46:00,
2013-02-04 23:51:00,8.2,2.8,29.91,West,269,8.0,11.0,78,0.00,,---,0.00,VWS V14.01,2013-02-05 04:51:00,
2013-02-04 23:56:00,8.3,2.9,29.91,West,259,8.0,11.0,78,0.00,,---,0.00,VWS V14.01,2013-02-05 04:56:00,